Etusivu
METAR-TAF:

METAR-TAF

Lentoasemat :

Ringkøbing-Skjern, Tanska

Leveyspiiri: 56-00N, Pituuspiiri: 008-21E, korkeus merenpinnasta: 5 m

Tämänhetkinen sää

Tämä raportti tehtiin 4 tuntia ja 56 minuuttia sitten, kello 14.50 UTC
Tuuli 16 kn idästä
Lämpötila 5°C
Kosteus 87%
Ilmanpaine 1025 hPa
Näkyvyys 10 km tai enemmän
Muutamia pilviä 2000 ft:n korkeudessa
Hajanaisia pilviä 14000 ft:n korkeudessa

METAR: EKVJ 211450Z 09016KT 9999 FEW020 SCT140 05/03 Q1025

Aika: 20:46 (19:46 UTC)

Sääennuste

Tämä raportti tehtiin 7 tuntia ja 48 minuuttia sitten, kello 11.58 UTC
Ennuste voimassa 21. päivästä klo 12 UTC - 21. päivään klo 16 UTC
Tuuli 15 kn idästä
Näkyvyys 10 km tai enemmän
Hajonneita pilviä 1800 ft:n korkeudessa

TAF: EKVJ 211158Z 2112/2116 09015KT 9999 BKN018

Säähavainnot ja -ennusteet yli 4000 lentoasemalta (METAR- ja TAF-raportit).

Käytössä olevat sääasemat on merkitty karttaan keltaisilla ja punaisilla pisteillä.

Aseta hiiri pisteen päälle nähdäksesi sääaseman nimen.

Klikkaa sitten nähdäksesi säähavainnot ja -ennusteet.

Kartan vaihtaminen: klikkaa mustalla rastilla varustettuja vihreitä pisteitä, niin voit zoomata sisään; viivalla varustettua vihreää pistettä, niin voit zoomata ulos tai vihreitä nuolia, niin pääset viereisille kartoille.


METAR-TAF: